Time;durP1;ratioP1;P1;durP2;ratioP2;P2;SDS_P1;SDS_P2;PMS_P1;PMS_P2;Temp;Humidity;BMP_temperature;BMP_pressure;BME280_temperature;BME280_humidity;BME280_pressure;Samples;Min_cycle;Max_cycle;Signal;HPM_P1;HPM_P2
2022/03/03 00:00:15;;;;;;;23.60;10.90;;;;;;;12.34;38.88;101907.78;4915294;29;20059;-52
2022/03/03 00:02:42;;;;;;;23.77;10.43;;;;;;;12.31;38.58;101913.53;4908287;29;20348;-52
2022/03/03 00:05:09;;;;;;;24.70;11.55;;;;;;;12.27;39.42;101912.22;4912303;29;20049;-51
2022/03/03 00:07:35;;;;;;;23.23;10.32;;;;;;;12.27;38.98;101913.03;4916986;29;20072;-50
2022/03/03 00:10:04;;;;;;;25.25;11.63;;;;;;;12.14;39.47;101902.91;4905693;29;20074;-48
2022/03/03 00:12:30;;;;;;;25.67;11.27;;;;;;;12.25;39.25;101909.72;4917259;29;20037;-50
2022/03/03 00:14:56;;;;;;;20.25;9.90;;;;;;;12.24;39.60;101909.91;4887303;29;20074;-50
2022/03/03 00:17:21;;;;;;;26.57;12.03;;;;;;;12.18;40.30;101911.44;4898685;29;20053;-49
2022/03/03 00:19:47;;;;;;;27.17;11.00;;;;;;;12.17;41.27;101907.09;4907254;29;20075;-50
2022/03/03 00:22:13;;;;;;;24.03;10.33;;;;;;;12.13;41.16;101901.25;4918871;29;20037;-51
2022/03/03 00:24:38;;;;;;;20.93;10.80;;;;;;;12.18;41.40;101898.88;4909540;29;20036;-52
2022/03/03 00:27:05;;;;;;;25.10;12.53;;;;;;;12.14;41.52;101908.28;4912844;29;20056;-49
2022/03/03 00:29:31;;;;;;;26.17;11.73;;;;;;;12.19;41.87;101897.03;4899731;29;20048;-47
2022/03/03 00:31:57;;;;;;;26.52;11.60;;;;;;;12.11;42.21;101895.25;4906220;29;20029;-49
2022/03/03 00:34:23;;;;;;;27.23;11.43;;;;;;;12.21;41.65;101895.00;4918171;29;20048;-50
2022/03/03 00:36:48;;;;;;;22.83;11.50;;;;;;;11.93;41.12;101892.84;4910266;29;20071;-49
2022/03/03 00:39:14;;;;;;;24.47;11.17;;;;;;;11.84;39.98;101894.75;4911160;29;20045;-48
2022/03/03 00:41:40;;;;;;;26.17;12.77;;;;;;;11.59;39.93;101884.19;4916777;29;20045;-49
2022/03/03 00:44:06;;;;;;;25.98;11.15;;;;;;;11.91;39.61;101886.81;4906012;29;20044;-48
2022/03/03 00:46:33;;;;;;;23.60;11.73;;;;;;;11.82;39.47;101886.03;4916512;29;20033;-48
2022/03/03 00:48:59;;;;;;;23.77;11.00;;;;;;;11.81;39.16;101886.22;4911324;29;20035;-48
2022/03/03 00:51:24;;;;;;;24.13;11.35;;;;;;;11.89;39.34;101884.31;4909787;29;20041;-48
2022/03/03 00:53:51;;;;;;;24.95;11.73;;;;;;;11.77;39.14;101886.56;4918099;29;20061;-47
2022/03/03 00:56:18;;;;;;;27.95;11.90;;;;;;;11.74;39.61;101886.06;4889322;29;20057;-48
2022/03/03 00:58:43;;;;;;;25.77;12.27;;;;;;;11.78;39.12;101884.75;4914428;29;20041;-49
2022/03/03 01:01:09;;;;;;;22.00;11.77;;;;;;;11.71;39.62;101881.06;4912355;29;20041;-50
2022/03/03 01:03:34;;;;;;;25.23;11.25;;;;;;;11.61;39.05;101871.44;4908267;29;20041;-49
2022/03/03 01:06:00;;;;;;;24.37;10.87;;;;;;;11.62;39.57;101873.09;4901575;29;20047;-50
2022/03/03 01:08:26;;;;;;;25.52;12.02;;;;;;;11.62;39.68;101877.63;4890563;29;20041;-45
2022/03/03 01:10:52;;;;;;;25.67;11.00;;;;;;;11.65;39.73;101874.59;4913956;29;20069;-48
2022/03/03 01:13:17;;;;;;;23.87;11.70;;;;;;;11.77;40.03;101877.72;4912747;29;20043;-49
2022/03/03 01:15:44;;;;;;;26.45;12.20;;;;;;;11.75;40.38;101869.84;4906772;29;20072;-49
2022/03/03 01:18:10;;;;;;;23.17;11.65;;;;;;;11.64;40.47;101869.41;4917813;29;20045;-53
2022/03/03 01:20:35;;;;;;;27.63;12.10;;;;;;;11.69;40.41;101870.56;4907655;29;20059;-51
2022/03/03 01:23:01;;;;;;;23.67;12.03;;;;;;;11.48;40.33;101863.13;4912312;29;20283;-51
2022/03/03 01:25:26;;;;;;;31.97;13.97;;;;;;;11.41;40.45;101863.00;4913989;29;20060;-50
2022/03/03 01:27:52;;;;;;;25.47;11.27;;;;;;;11.63;39.95;101863.19;4905970;29;20040;-48
2022/03/03 01:30:17;;;;;;;23.92;11.20;;;;;;;11.41;40.00;101859.50;4917715;29;20029;-52
2022/03/03 01:32:43;;;;;;;25.67;12.07;;;;;;;11.24;40.33;101856.06;4892422;29;20038;-47
2022/03/03 01:35:09;;;;;;;21.90;12.00;;;;;;;11.38;39.91;101854.50;4911164;29;20041;-51
2022/03/03 01:37:35;;;;;;;22.23;12.07;;;;;;;11.41;39.90;101851.47;4915076;29;20052;-49
2022/03/03 01:40:01;;;;;;;24.27;10.95;;;;;;;11.43;39.81;101849.44;4888806;29;20041;-49
2022/03/03 01:42:27;;;;;;;28.00;11.48;;;;;;;11.30;40.09;101845.50;4916424;29;20041;-48
2022/03/03 01:44:53;;;;;;;21.07;10.47;;;;;;;11.26;40.29;101844.16;4909495;29;20152;-52
2022/03/03 01:47:20;;;;;;;27.40;13.07;;;;;;;11.16;40.32;101843.56;4909837;29;20033;-50
2022/03/03 01:49:48;;;;;;;26.27;11.38;;;;;;;11.06;40.66;101841.09;4916264;29;20044;-48
2022/03/03 01:52:14;;;;;;;26.65;12.95;;;;;;;11.09;40.78;101847.94;4904798;29;20044;-50
2022/03/03 01:54:40;;;;;;;27.55;12.88;;;;;;;10.91;41.74;101838.31;4915265;29;20061;-50
2022/03/03 01:57:07;;;;;;;25.15;11.57;;;;;;;10.89;42.52;101840.31;4911068;29;20041;-47
2022/03/03 01:59:35;;;;;;;28.75;12.75;;;;;;;10.84;43.40;101831.97;4921784;29;20041;-48
2022/03/03 02:02:01;;;;;;;26.67;12.25;;;;;;;10.82;44.66;101825.94;4904945;29;20101;-53
2022/03/03 02:04:27;;;;;;;27.08;11.77;;;;;;;10.79;45.20;101828.97;4916166;29;20048;-51
2022/03/03 02:06:54;;;;;;;33.15;14.00;;;;;;;10.72;45.75;101828.81;4909065;29;20064;-49
2022/03/03 02:09:19;;;;;;;31.83;14.37;;;;;;;10.75;46.31;101831.19;4909353;29;20033;-52
2022/03/03 02:11:48;;;;;;;33.83;14.88;;;;;;;10.68;47.13;101833.69;4915385;29;20041;-52
2022/03/03 02:14:14;;;;;;;30.92;14.25;;;;;;;10.58;47.77;101833.88;4904306;29;20041;-48
2022/03/03 02:16:40;;;;;;;31.30;13.50;;;;;;;10.60;48.41;101818.50;4914113;29;20066;-50
2022/03/03 02:19:07;;;;;;;27.23;13.10;;;;;;;10.59;48.44;101818.66;4910399;29;20033;-47
2022/03/03 02:21:33;;;;;;;29.17;13.73;;;;;;;10.56;48.97;101825.19;4907373;29;20053;-49
2022/03/03 02:24:00;;;;;;;33.05;13.82;;;;;;;10.56;49.69;101816.34;4916554;29;20065;-53
2022/03/03 02:26:26;;;;;;;30.80;13.50;;;;;;;10.52;49.97;101818.53;4903745;29;20050;-48
2022/03/03 02:28:53;;;;;;;28.50;12.60;;;;;;;10.47;50.72;101811.00;4912826;29;20033;-49
2022/03/03 02:31:19;;;;;;;30.17;13.93;;;;;;;10.42;50.73;101816.03;4911559;29;20137;-51
2022/03/03 02:33:46;;;;;;;33.83;14.00;;;;;;;10.41;49.99;101802.84;4905635;29;20037;-50
2022/03/03 02:36:19;;;;;;;33.97;13.68;;;;;;;10.34;50.04;101805.31;4916115;29;20047;-48
2022/03/03 02:38:46;;;;;;;25.30;12.70;;;;;;;10.35;48.75;101812.34;4906709;29;20045;-51
2022/03/03 02:41:12;;;;;;;30.98;12.50;;;;;;;10.45;47.03;101815.69;4909992;29;20063;-49
2022/03/03 02:43:37;;;;;;;25.10;10.37;;;;;;;10.33;46.07;101809.84;4913685;29;20036;-48
2022/03/03 02:46:05;;;;;;;29.13;13.13;;;;;;;10.40;45.87;101804.69;4903608;29;20048;-50
2022/03/03 02:48:30;;;;;;;26.00;11.50;;;;;;;10.39;45.80;101802.13;4915071;29;20036;-48
2022/03/03 02:50:56;;;;;;;28.47;11.97;;;;;;;10.40;45.57;101807.34;4908180;29;20045;-51
2022/03/03 02:53:21;;;;;;;26.10;12.07;;;;;;;10.37;45.68;101801.47;4908708;29;20045;-48
2022/03/03 02:55:47;;;;;;;33.67;13.30;;;;;;;10.40;45.78;101799.34;4914469;29;20084;-47
2022/03/03 02:58:12;;;;;;;26.23;13.23;;;;;;;10.37;46.19;101807.63;4887440;29;20070;-50
2022/03/03 03:00:43;;;;;;;33.57;14.33;;;;;;;10.30;46.99;101804.00;4903113;29;20035;-48
2022/03/03 03:03:12;;;;;;;30.10;13.00;;;;;;;10.43;47.30;101792.78;4919236;29;20047;-50
2022/03/03 03:05:37;;;;;;;26.90;14.05;;;;;;;10.32;48.13;101807.31;4905324;29;20036;-51
2022/03/03 03:08:04;;;;;;;30.63;14.50;;;;;;;10.34;48.54;101799.97;4915821;29;20041;-48
2022/03/03 03:10:29;;;;;;;33.70;15.23;;;;;;;10.23;48.87;101803.00;4904567;29;20036;-50
2022/03/03 03:12:55;;;;;;;26.98;13.07;;;;;;;10.21;49.00;101797.81;4911894;29;20037;-51
2022/03/03 03:15:21;;;;;;;27.90;13.13;;;;;;;10.26;49.36;101789.31;4911122;29;20043;-49
2022/03/03 03:17:46;;;;;;;31.80;13.93;;;;;;;10.13;49.79;101790.63;4905038;29;20109;-48
2022/03/03 03:20:12;;;;;;;29.77;13.10;;;;;;;10.15;49.43;101782.47;4915701;29;20049;-51
2022/03/03 03:22:38;;;;;;;24.98;12.35;;;;;;;10.05;49.08;101782.63;4905443;29;20519;-54
2022/03/03 03:25:05;;;;;;;29.30;12.23;;;;;;;9.98;49.17;101779.81;4910654;29;20048;-49
2022/03/03 03:27:31;;;;;;;30.50;13.90;;;;;;;9.99;49.23;101781.47;4912048;29;20032;-48
2022/03/03 03:29:56;;;;;;;25.80;13.17;;;;;;;9.99;48.95;101776.13;4903841;29;20062;-48
2022/03/03 03:32:22;;;;;;;31.67;14.47;;;;;;;10.03;48.58;101773.97;4915602;29;20048;-50
2022/03/03 03:34:47;;;;;;;27.40;12.27;;;;;;;9.99;48.38;101777.97;4906528;29;20084;-51
2022/03/03 03:37:12;;;;;;;28.87;13.50;;;;;;;9.94;47.85;101773.13;4910409;29;20044;-50
2022/03/03 03:39:38;;;;;;;28.15;13.20;;;;;;;9.95;47.55;101773.97;4916627;29;20075;-52
2022/03/03 03:42:04;;;;;;;31.20;13.47;;;;;;;9.88;47.60;101776.47;4907160;29;20037;-48
2022/03/03 03:44:29;;;;;;;34.72;14.40;;;;;;;9.96;47.62;101773.78;4918795;29;20033;-46
2022/03/03 03:46:55;;;;;;;28.17;13.37;;;;;;;9.88;47.50;101771.97;4911432;29;20061;-48
2022/03/03 03:49:20;;;;;;;30.50;13.20;;;;;;;9.80;47.54;101769.28;4912260;29;20064;-49
2022/03/03 03:51:46;;;;;;;28.47;13.43;;;;;;;9.80;47.57;101771.13;4904054;29;20050;-50
2022/03/03 03:54:11;;;;;;;35.00;14.17;;;;;;;9.72;47.78;101771.97;4919292;29;20064;-49
2022/03/03 03:56:37;;;;;;;27.80;12.52;;;;;;;9.57;48.40;101771.78;4908318;29;20048;-50
2022/03/03 03:59:02;;;;;;;24.07;12.20;;;;;;;9.49;48.65;101777.13;4914406;29;20037;-49
2022/03/03 04:01:30;;;;;;;27.13;13.50;;;;;;;9.42;48.62;101772.44;4915040;29;20073;-48
2022/03/03 04:03:57;;;;;;;27.00;12.93;;;;;;;9.60;48.15;101772.28;4907450;29;20058;-51
2022/03/03 04:06:22;;;;;;;27.65;13.13;;;;;;;9.47;48.46;101764.78;4919216;29;20033;-48
2022/03/03 04:08:48;;;;;;;27.03;12.57;;;;;;;9.54;48.10;101767.63;4909707;29;20040;-50
2022/03/03 04:11:13;;;;;;;31.00;15.17;;;;;;;9.48;48.29;101765.63;4912467;29;20045;-50
2022/03/03 04:13:39;;;;;;;28.07;12.43;;;;;;;9.57;48.05;101761.94;4916149;29;20127;-47
2022/03/03 04:16:05;;;;;;;29.15;12.70;;;;;;;9.58;48.29;101762.78;4906533;29;20041;-47
2022/03/03 04:18:32;;;;;;;23.30;10.45;;;;;;;9.63;47.63;101748.91;4918179;29;20036;-48
2022/03/03 04:20:58;;;;;;;29.92;12.95;;;;;;;9.68;47.61;101751.91;4910675;29;20040;-49
2022/03/03 04:23:23;;;;;;;36.47;13.67;;;;;;;9.68;47.54;101751.91;4911356;29;20076;-49
2022/03/03 04:25:49;;;;;;;31.23;13.37;;;;;;;9.63;47.74;101749.78;4917059;29;20048;-48
2022/03/03 04:28:14;;;;;;;31.20;12.80;;;;;;;9.60;48.08;101745.59;4906005;29;20041;-47
2022/03/03 04:30:40;;;;;;;28.48;13.48;;;;;;;9.73;47.68;101744.25;4916651;29;20101;-51
2022/03/03 04:33:05;;;;;;;27.07;13.03;;;;;;;9.58;47.89;101744.91;4911450;29;20051;-48
2022/03/03 04:35:31;;;;;;;31.40;13.90;;;;;;;9.51;48.13;101746.59;4910151;29;20037;-51
2022/03/03 04:37:56;;;;;;;29.90;12.87;;;;;;;9.49;48.04;101747.75;4917940;29;20065;-49
2022/03/03 04:40:21;;;;;;;26.80;12.83;;;;;;;9.40;48.48;101752.25;4906089;29;20047;-47
2022/03/03 04:42:49;;;;;;;25.05;11.85;;;;;;;9.18;49.54;101746.53;4914873;29;20056;-49
2022/03/03 04:45:15;;;;;;;30.23;12.57;;;;;;;9.20;49.54;101749.88;4912289;29;20048;-46
2022/03/03 04:47:42;;;;;;;29.23;13.07;;;;;;;9.22;49.60;101747.88;4908490;29;20048;-48
2022/03/03 04:50:08;;;;;;;29.80;12.95;;;;;;;9.24;49.46;101745.91;4916970;29;20040;-47
2022/03/03 04:52:33;;;;;;;29.98;14.43;;;;;;;9.18;49.53;101749.22;4906881;29;20041;-50
2022/03/03 04:54:59;;;;;;;29.25;12.82;;;;;;;9.08;50.03;101756.53;4914181;29;20037;-47
2022/03/03 04:57:24;;;;;;;29.97;13.53;;;;;;;9.00;50.33;101752.00;4913362;29;20133;-51
2022/03/03 04:59:50;;;;;;;37.33;13.70;;;;;;;8.92;50.73;101763.47;4907447;29;20113;-47
2022/03/03 05:02:15;;;;;;;30.73;14.40;;;;;;;8.90;51.09;101760.16;4885986;29;20051;-47
2022/03/03 05:04:41;;;;;;;37.27;14.43;;;;;;;8.72;52.00;101750.41;4907683;29;20104;-48
2022/03/03 05:07:06;;;;;;;33.90;14.20;;;;;;;8.67;52.56;101758.06;4904802;29;20033;-51
2022/03/03 05:09:32;;;;;;;32.30;14.57;;;;;;;8.67;52.44;101750.06;4921139;29;20108;-51
2022/03/03 05:11:59;;;;;;;35.75;14.35;;;;;;;8.69;53.15;101756.06;4906284;29;20045;-47
2022/03/03 05:14:26;;;;;;;29.58;13.18;;;;;;;8.69;53.38;101764.06;4917799;29;20097;-52
2022/03/03 05:16:52;;;;;;;32.67;14.05;;;;;;;8.66;53.75;101764.38;4908884;29;20044;-48
2022/03/03 05:19:17;;;;;;;34.43;14.17;;;;;;;8.72;53.61;101747.72;4911470;29;20041;-51
2022/03/03 05:21:43;;;;;;;32.42;14.70;;;;;;;8.72;54.26;101747.72;4915206;29;20141;-52
2022/03/03 05:24:09;;;;;;;30.97;13.73;;;;;;;8.68;54.83;101749.06;4905394;29;20049;-49
2022/03/03 05:26:34;;;;;;;33.13;14.23;;;;;;;8.68;56.48;101751.72;4916856;29;20041;-49
2022/03/03 05:29:00;;;;;;;31.57;14.27;;;;;;;8.53;57.85;101754.16;4909533;29;20060;-50
2022/03/03 05:31:25;;;;;;;32.05;13.57;;;;;;;8.50;58.62;101759.81;4910207;29;20465;-52
2022/03/03 05:33:52;;;;;;;37.88;15.98;;;;;;;8.51;59.11;101756.16;4916351;29;20048;-47
2022/03/03 05:36:18;;;;;;;34.00;14.27;;;;;;;8.37;60.35;101756.69;4904801;29;20100;-51
2022/03/03 05:38:43;;;;;;;35.10;15.82;;;;;;;8.54;59.76;101753.16;4915515;29;20151;-48
2022/03/03 05:41:09;;;;;;;34.70;15.88;;;;;;;8.45;60.21;101752.25;4910667;29;20040;-49
2022/03/03 05:43:35;;;;;;;37.53;14.97;;;;;;;8.43;60.42;101754.25;4908857;29;20049;-48
2022/03/03 05:46:02;;;;;;;31.40;15.32;;;;;;;8.35;61.32;101748.03;4917038;29;20279;-49
2022/03/03 05:48:28;;;;;;;34.10;15.57;;;;;;;8.22;63.34;101746.66;4905053;29;20036;-49
2022/03/03 05:50:54;;;;;;;35.30;15.93;;;;;;;8.06;65.93;101743.88;4914376;29;20073;-49
2022/03/03 05:53:22;;;;;;;37.88;16.95;;;;;;;8.22;65.08;101741.31;4911716;29;20047;-48
2022/03/03 05:55:50;;;;;;;33.47;15.90;;;;;;;8.22;65.90;101743.97;4906620;29;20067;-47
2022/03/03 05:58:18;;;;;;;44.60;16.92;;;;;;;8.14;68.24;101743.91;4916897;29;20040;-47
2022/03/03 06:00:45;;;;;;;37.45;16.65;;;;;;;8.40;66.12;101751.91;4906605;29;20021;-49
2022/03/03 06:03:16;;;;;;;34.65;15.57;;;;;;;8.50;66.74;101748.31;4904142;29;20048;-47
2022/03/03 06:05:48;;;;;;;40.40;17.20;;;;;;;8.38;67.55;101745.91;4920157;29;20100;-49
2022/03/03 06:08:23;;;;;;;40.00;17.10;;;;;;;8.49;67.41;101747.44;4903476;29;20044;-49
2022/03/03 06:10:53;;;;;;;41.45;16.60;;;;;;;8.46;67.80;101756.59;4914278;29;20051;-52
2022/03/03 06:13:24;;;;;;;38.38;16.55;;;;;;;8.55;67.37;101754.84;4910945;29;20100;-49
2022/03/03 06:15:52;;;;;;;35.80;16.15;;;;;;;8.45;67.90;101744.25;4906565;29;20037;-48
2022/03/03 06:18:27;;;;;;;38.25;16.58;;;;;;;8.34;69.50;101739.22;4916583;29;20064;-51
2022/03/03 06:20:54;;;;;;;37.80;16.23;;;;;;;8.23;71.09;101742.13;4907586;29;20100;-48
2022/03/03 06:23:20;;;;;;;30.80;14.85;;;;;;;8.11;71.71;101738.91;4910081;29;20048;-49
2022/03/03 06:25:54;;;;;;;36.78;15.52;;;;;;;8.22;69.74;101745.78;4914285;29;20067;-47
2022/03/03 06:28:20;;;;;;;38.78;15.27;;;;;;;8.22;67.96;101754.63;4902389;29;20516;-45
2022/03/03 06:30:46;;;;;;;37.78;16.92;;;;;;;8.19;67.79;101746.97;4906330;29;20032;-51
2022/03/03 06:33:11;;;;;;;33.07;15.37;;;;;;;8.27;67.66;101751.47;4911274;29;20048;-47
2022/03/03 06:35:37;;;;;;;33.37;15.27;;;;;;;8.22;66.53;101741.31;4896509;29;20051;-50
2022/03/03 06:38:05;;;;;;;34.38;16.00;;;;;;;8.09;69.77;101740.88;4904540;29;20048;-48
2022/03/03 06:40:31;;;;;;;38.42;16.35;;;;;;;8.18;70.76;101750.59;4903921;29;20096;-52
2022/03/03 06:43:00;;;;;;;37.50;16.42;;;;;;;8.28;69.63;101755.81;4912958;29;20041;-50
2022/03/03 06:45:28;;;;;;;34.75;15.43;;;;;;;8.18;70.16;101750.59;4911132;29;20051;-46
2022/03/03 06:47:55;;;;;;;39.08;17.15;;;;;;;8.22;69.46;101751.13;4905505;29;20045;-49
2022/03/03 06:50:21;;;;;;;30.35;14.70;;;;;;;8.07;70.69;101756.19;4916028;29;20041;-51
2022/03/03 06:52:48;;;;;;;40.72;15.48;;;;;;;8.17;70.74;101757.75;4905901;29;20075;-46
2022/03/03 06:55:18;;;;;;;38.35;17.35;;;;;;;8.35;69.72;101759.53;4910138;29;20045;-45
2022/03/03 06:57:48;;;;;;;37.25;15.43;;;;;;;8.53;68.23;101769.31;4913210;29;20055;-48
2022/03/03 07:00:15;;;;;;;39.05;15.68;;;;;;;8.54;67.97;101766.50;4903381;29;20041;-49
2022/03/03 07:02:42;;;;;;;41.35;16.60;;;;;;;8.47;69.03;101770.78;4914755;29;20090;-47
2022/03/03 07:05:10;;;;;;;32.90;14.73;;;;;;;8.69;67.57;101780.06;4908294;29;20101;-47
2022/03/03 07:07:36;;;;;;;34.15;15.45;;;;;;;8.83;66.62;101769.78;4907528;29;20048;-51
2022/03/03 07:10:03;;;;;;;37.00;16.25;;;;;;;8.91;64.93;101767.16;4915223;29;20040;-50
2022/03/03 07:12:32;;;;;;;34.30;15.57;;;;;;;8.70;66.29;101771.06;4902525;29;20069;-46
2022/03/03 07:14:58;;;;;;;39.00;16.30;;;;;;;8.71;65.73;101778.06;4912458;29;20069;-46
2022/03/03 07:17:43;;;;;;;35.47;15.87;;;;;;;8.63;67.97;101786.03;4910207;29;20037;-53
2022/03/03 07:20:11;;;;;;;29.80;14.40;;;;;;;8.83;66.70;101780.47;4903229;29;20037;-46
2022/03/03 07:22:44;;;;;;;40.55;15.80;;;;;;;8.84;66.62;101782.13;4902686;29;20033;-48
2022/03/03 07:25:12;;;;;;;39.65;16.15;;;;;;;8.90;66.48;101784.16;4918807;29;20053;-48
2022/03/03 07:27:45;;;;;;;38.33;15.77;;;;;;;8.81;67.69;101779.78;4907173;29;20066;-49
2022/03/03 07:30:15;;;;;;;36.20;16.55;;;;;;;9.06;66.24;101780.69;4915496;29;20040;-52
2022/03/03 07:32:47;;;;;;;35.65;16.73;;;;;;;9.10;65.86;101781.22;4904475;29;20036;-52
2022/03/03 07:35:14;;;;;;;37.78;15.38;;;;;;;9.23;64.86;101781.59;4910474;29;20048;-52
2022/03/03 07:37:49;;;;;;;38.33;14.73;;;;;;;9.31;64.70;101784.28;4911995;29;20071;-51
2022/03/03 07:40:16;;;;;;;37.40;16.27;;;;;;;9.51;63.36;101785.81;4902630;29;20041;-51
2022/03/03 07:42:42;;;;;;;35.10;15.65;;;;;;;9.32;65.74;101791.28;4914241;29;20101;-49
2022/03/03 07:45:08;;;;;;;47.00;17.50;;;;;;;9.30;67.51;101795.94;4907522;29;20032;-50
2022/03/03 07:47:35;;;;;;;33.90;14.15;;;;;;;9.35;64.25;101790.13;4902328;29;20043;-51
2022/03/03 07:50:01;;;;;;;35.83;16.10;;;;;;;9.45;59.40;101789.97;4918772;29;20067;-48
2022/03/03 07:52:28;;;;;;;31.25;14.68;;;;;;;9.64;55.89;101796.84;4902763;29;20033;-49
2022/03/03 07:54:54;;;;;;;34.13;14.63;;;;;;;9.87;54.44;101804.19;4912996;29;20057;-49
2022/03/03 07:57:21;;;;;;;33.87;13.23;;;;;;;10.10;52.80;101795.50;4908710;29;20064;-52
2022/03/03 08:00:00;;;;;;;33.67;14.77;;;;;;;10.35;51.70;101798.97;4905090;29;20339;-46
2022/03/03 08:02:28;;;;;;;31.90;14.25;;;;;;;10.50;51.21;101792.94;4915172;29;20106;-49
2022/03/03 08:04:55;;;;;;;31.65;14.88;;;;;;;10.60;50.52;101789.06;4899925;29;20055;-48
2022/03/03 08:07:20;;;;;;;30.35;14.35;;;;;;;10.66;50.37;101792.06;4909123;29;20048;-51
2022/03/03 08:09:47;;;;;;;33.50;13.63;;;;;;;10.69;51.00;101786.38;4906044;29;20049;-50
2022/03/03 08:12:16;;;;;;;36.28;13.20;;;;;;;10.72;51.48;101789.53;4914921;29;20040;-52
2022/03/03 08:14:41;;;;;;;35.65;13.75;;;;;;;10.66;51.00;101794.75;4903595;29;20028;-49
2022/03/03 08:17:12;;;;;;;29.97;13.90;;;;;;;10.80;50.17;101793.19;4911019;29;20051;-50
2022/03/03 08:19:38;;;;;;;29.85;13.65;;;;;;;10.93;52.27;101798.81;4910893;29;20040;-45
2022/03/03 08:22:05;;;;;;;27.60;13.45;;;;;;;10.98;51.66;101803.66;4903475;29;20048;-53
2022/03/03 08:24:34;;;;;;;37.10;13.88;;;;;;;11.03;49.64;101799.44;4918051;29;20025;-48
2022/03/03 08:27:01;;;;;;;36.10;14.07;;;;;;;11.12;51.01;101802.91;4909521;29;20051;-47
2022/03/03 08:29:27;;;;;;;34.17;15.45;;;;;;;11.33;51.89;101802.31;4911877;29;20093;-46
2022/03/03 08:31:56;;;;;;;28.37;14.03;;;;;;;11.41;52.31;101795.22;4916493;29;20040;-51
2022/03/03 08:34:33;;;;;;;28.85;13.93;;;;;;;11.62;51.11;101798.09;4906152;29;20041;-50
2022/03/03 08:37:02;;;;;;;31.42;13.80;;;;;;;11.72;51.24;101799.69;4902147;29;20037;-52
2022/03/03 08:39:30;;;;;;;29.95;14.63;;;;;;;11.77;51.52;101795.44;4912911;29;20037;-47
2022/03/03 08:41:58;;;;;;;30.67;13.77;;;;;;;12.03;50.34;101793.44;4908032;29;20037;-49
2022/03/03 08:44:33;;;;;;;24.65;13.32;;;;;;;12.37;48.20;101805.50;4918229;29;20040;-46
2022/03/03 08:46:59;;;;;;;30.77;13.63;;;;;;;12.73;47.16;101796.72;4908980;29;20036;-48
2022/03/03 08:49:32;;;;;;;32.90;14.98;;;;;;;13.31;46.34;101803.19;4912051;29;20074;-50
2022/03/03 08:51:59;;;;;;;30.75;13.98;;;;;;;13.92;44.69;101799.22;4916649;29;20043;-47
2022/03/03 08:54:25;;;;;;;25.63;13.40;;;;;;;14.24;43.00;101796.16;4905837;29;20052;-47
2022/03/03 08:56:51;;;;;;;26.47;13.53;;;;;;;14.82;40.91;101795.91;4915894;29;20053;-51
2022/03/03 08:59:16;;;;;;;26.00;12.60;;;;;;;15.46;39.47;101801.91;4910930;29;20040;-49
2022/03/03 09:01:42;;;;;;;27.63;14.07;;;;;;;16.04;37.63;101799.69;4909675;29;20044;-50
2022/03/03 09:04:07;;;;;;;32.03;12.50;;;;;;;16.57;36.39;101795.22;4917535;29;20073;-50
2022/03/03 09:06:34;;;;;;;24.63;12.55;;;;;;;17.14;34.91;101805.44;4905105;29;20056;-51
2022/03/03 09:08:59;;;;;;;24.77;12.37;;;;;;;17.85;33.83;101800.81;4914900;29;20049;-50
2022/03/03 09:11:24;;;;;;;25.60;13.43;;;;;;;18.18;33.03;101809.72;4911894;29;20290;-49
2022/03/03 09:13:50;;;;;;;24.92;12.15;;;;;;;18.85;32.11;101800.03;4892292;29;20065;-50
2022/03/03 09:16:17;;;;;;;18.70;11.80;;;;;;;19.37;29.29;101804.97;4917881;29;20060;-49
2022/03/03 09:18:47;;;;;;;23.93;11.80;;;;;;;19.81;28.29;101801.19;4906171;29;20052;-49
2022/03/03 09:21:14;;;;;;;28.30;12.57;;;;;;;20.26;27.10;101800.63;4912998;29;20378;-51
2022/03/03 09:23:41;;;;;;;21.87;12.20;;;;;;;20.88;26.12;101801.97;4913398;29;20283;-51
2022/03/03 09:26:07;;;;;;;23.27;12.10;;;;;;;21.49;25.61;101800.63;4906235;29;20303;-54
2022/03/03 09:28:33;;;;;;;24.13;12.88;;;;;;;22.20;24.56;101804.72;4917604;29;20284;-50
2022/03/03 09:30:58;;;;;;;20.70;12.73;;;;;;;22.52;24.04;101803.28;4907817;29;20036;-53
2022/03/03 09:33:24;;;;;;;19.42;11.43;;;;;;;22.69;24.28;101804.06;4911493;29;20032;-51
2022/03/03 09:35:51;;;;;;;20.30;11.40;;;;;;;22.74;23.61;101801.38;4914185;29;20116;-52
2022/03/03 09:38:17;;;;;;;21.33;12.85;;;;;;;23.29;23.48;101809.63;4904855;29;20268;-50
2022/03/03 09:40:44;;;;;;;22.83;12.57;;;;;;;23.51;23.33;101805.19;4920854;29;20040;-49
2022/03/03 09:43:09;;;;;;;;;;;;;;;23.77;22.77;101808.97;4913590;29;20033;-51
2022/03/03 09:45:36;;;;;;;21.13;12.47;;;;;;;24.28;21.82;101799.47;4912381;29;19950;-49
2022/03/03 09:48:05;;;;;;;21.30;12.60;;;;;;;24.80;22.11;101813.41;4906198;29;20048;-53
2022/03/03 09:50:32;;;;;;;22.33;12.10;;;;;;;24.99;21.76;101805.50;4917229;29;20059;-51
2022/03/03 09:52:58;;;;;;;24.37;12.00;;;;;;;25.23;20.95;101802.28;4907445;29;20073;-52
2022/03/03 09:55:24;;;;;;;;;;;;;;;25.20;21.22;101798.19;4904464;29;20121;-51
2022/03/03 09:57:51;;;;;;;21.10;12.40;;;;;;;25.30;20.62;101800.09;4920156;29;19915;-48
2022/03/03 10:00:17;;;;;;;20.07;11.83;;;;;;;25.69;20.56;101799.56;4904407;29;20109;-52
2022/03/03 10:03:08;;;;;;;24.17;12.77;;;;;;;25.53;20.53;101793.28;4916331;29;20029;-48
2022/03/03 10:05:39;;;;;;;24.97;13.60;;;;;;;26.25;19.87;101802.53;4911604;29;20087;-51
2022/03/03 10:08:08;;;;;;;20.63;12.23;;;;;;;26.30;20.10;101794.31;4905427;29;20044;-51
2022/03/03 10:10:37;;;;;;;28.73;12.97;;;;;;;26.19;19.72;101799.81;4916792;29;20051;-50
2022/03/03 10:13:03;;;;;;;24.53;11.87;;;;;;;26.45;19.56;101805.19;4907530;29;20036;-51
2022/03/03 10:15:31;;;;;;;18.27;11.63;;;;;;;27.04;19.17;101797.25;4910339;29;20048;-50
2022/03/03 10:17:58;;;;;;;23.63;12.63;;;;;;;27.75;18.68;101793.44;4914334;29;20037;-52
2022/03/03 10:20:24;;;;;;;21.00;12.40;;;;;;;27.97;18.70;101790.16;4887863;29;20037;-53
2022/03/03 10:22:57;;;;;;;20.63;12.00;;;;;;;28.18;18.39;101785.31;4914764;29;20033;-48
2022/03/03 10:25:35;;;;;;;19.73;11.90;;;;;;;28.27;18.17;101790.16;4909594;29;20049;-53
2022/03/03 10:28:15;;;;;;;26.77;12.53;;;;;;;28.76;18.00;101791.72;4905596;29;20048;-51
2022/03/03 10:30:47;;;;;;;22.87;12.03;;;;;;;28.96;17.79;101794.50;4903980;29;20096;-50
2022/03/03 10:33:15;;;;;;;17.17;11.47;;;;;;;28.95;17.80;101801.94;4911943;29;20120;-51
2022/03/03 10:35:41;;;;;;;22.13;11.37;;;;;;;28.55;17.87;101799.44;4911851;29;20036;-53
2022/03/03 10:38:06;;;;;;;;;;;;;;;28.60;18.46;101796.59;4903553;29;20036;-50
2022/03/03 10:40:38;;;;;;;22.67;12.57;;;;;;;29.26;17.80;101806.16;4916769;29;19915;-53
2022/03/03 10:43:04;;;;;;;19.90;11.73;;;;;;;29.67;17.34;101799.16;4906420;29;20040;-49
2022/03/03 10:45:30;;;;;;;23.73;12.37;;;;;;;30.32;17.34;101798.22;4909546;29;20044;-51
2022/03/03 10:48:00;;;;;;;;;;;;;;;30.25;17.26;101808.06;4913155;29;20036;-50
2022/03/03 10:50:25;;;;;;;18.90;10.97;;;;;;;30.13;17.22;101797.53;4903668;29;19923;-54
2022/03/03 10:52:50;;;;;;;;;;;;;;;30.76;17.27;101806.97;4898964;29;20045;-48
2022/03/03 10:55:17;;;;;;;18.43;11.03;;;;;;;31.02;16.85;101803.63;4907914;29;19922;-49
2022/03/03 10:57:54;;;;;;;23.35;11.65;;;;;;;31.26;16.66;101807.25;4907918;29;20037;-48
2022/03/03 11:00:26;;;;;;;16.58;11.50;;;;;;;31.43;16.41;101803.78;4915828;29;20110;-50
2022/03/03 11:02:59;;;;;;;17.10;11.18;;;;;;;31.32;16.39;101801.28;4905158;29;20088;-51
2022/03/03 11:05:29;;;;;;;16.75;10.95;;;;;;;31.01;16.47;101796.47;4910080;29;20040;-49
2022/03/03 11:07:56;;;;;;;19.38;11.82;;;;;;;31.18;16.61;101794.97;4912837;29;20057;-52
2022/03/03 11:10:24;;;;;;;19.17;11.25;;;;;;;31.43;16.58;101795.50;4903329;29;20048;-49
2022/03/03 11:12:50;;;;;;;21.65;11.15;;;;;;;31.60;15.36;101787.31;4914643;29;20037;-48